sensor_id;sensor_type;location;lat;lon;timestamp;pressure;altitude;pressure_sealevel;temperature;humidity
22206;BME280;11272;50.104;8.754;2023-04-03T00:01:59;101723.38;;;6.43;64.33
22206;BME280;11272;50.104;8.754;2023-04-03T00:04:24;101729.56;;;6.44;64.11
22206;BME280;11272;50.104;8.754;2023-04-03T00:06:50;101720.78;;;6.45;64.52
22206;BME280;11272;50.104;8.754;2023-04-03T00:09:15;101718.16;;;6.46;64.31
22206;BME280;11272;50.104;8.754;2023-04-03T00:11:41;101723.44;;;6.46;64.57
22206;BME280;11272;50.104;8.754;2023-04-03T00:14:06;101723.44;;;6.46;64.23
22206;BME280;11272;50.104;8.754;2023-04-03T00:16:32;101725.22;;;6.49;64.26
22206;BME280;11272;50.104;8.754;2023-04-03T00:18:57;101726.09;;;6.48;64.49
22206;BME280;11272;50.104;8.754;2023-04-03T00:21:25;101730.50;;;6.49;64.66
22206;BME280;11272;50.104;8.754;2023-04-03T00:23:51;101734.03;;;6.49;64.54
22206;BME280;11272;50.104;8.754;2023-04-03T00:26:19;101734.94;;;6.50;64.59
22206;BME280;11272;50.104;8.754;2023-04-03T00:28:46;101733.19;;;6.50;64.75
22206;BME280;11272;50.104;8.754;2023-04-03T00:31:15;101724.38;;;6.50;64.58
22206;BME280;11272;50.104;8.754;2023-04-03T00:33:41;101735.78;;;6.49;64.57
22206;BME280;11272;50.104;8.754;2023-04-03T00:36:10;101730.50;;;6.49;64.63
22206;BME280;11272;50.104;8.754;2023-04-03T00:38:38;101729.59;;;6.47;64.99
22206;BME280;11272;50.104;8.754;2023-04-03T00:41:05;101730.47;;;6.46;65.02
22206;BME280;11272;50.104;8.754;2023-04-03T00:43:33;101731.34;;;6.45;64.79
22206;BME280;11272;50.104;8.754;2023-04-03T00:45:59;101733.13;;;6.46;64.50
22206;BME280;11272;50.104;8.754;2023-04-03T00:48:31;101740.13;;;6.45;64.77
22206;BME280;11272;50.104;8.754;2023-04-03T00:51:01;101736.53;;;6.42;64.86
22206;BME280;11272;50.104;8.754;2023-04-03T00:53:31;101739.19;;;6.42;64.87
22206;BME280;11272;50.104;8.754;2023-04-03T00:55:59;101738.28;;;6.41;65.46
22206;BME280;11272;50.104;8.754;2023-04-03T00:58:36;101735.66;;;6.41;65.36
22206;BME280;11272;50.104;8.754;2023-04-03T01:01:05;101734.78;;;6.42;65.12
22206;BME280;11272;50.104;8.754;2023-04-03T01:03:32;101738.28;;;6.41;65.08
22206;BME280;11272;50.104;8.754;2023-04-03T01:05:59;101747.97;;;6.41;64.96
22206;BME280;11272;50.104;8.754;2023-04-03T01:08:25;101729.44;;;6.38;65.23
22206;BME280;11272;50.104;8.754;2023-04-03T01:10:51;101730.31;;;6.35;65.46
22206;BME280;11272;50.104;8.754;2023-04-03T01:13:23;101732.06;;;6.34;65.39
22206;BME280;11272;50.104;8.754;2023-04-03T01:15:49;101725.88;;;6.34;65.32
22206;BME280;11272;50.104;8.754;2023-04-03T01:18:18;101737.31;;;6.36;65.68
22206;BME280;11272;50.104;8.754;2023-04-03T01:23:27;101736.47;;;6.36;65.64
22206;BME280;11272;50.104;8.754;2023-04-03T01:25:56;101731.16;;;6.34;65.52
22206;BME280;11272;50.104;8.754;2023-04-03T01:28:32;101723.25;;;6.34;65.54
22206;BME280;11272;50.104;8.754;2023-04-03T01:33:39;101725.84;;;6.32;65.77
22206;BME280;11272;50.104;8.754;2023-04-03T01:36:06;101730.19;;;6.30;65.63
22206;BME280;11272;50.104;8.754;2023-04-03T01:38:34;101729.34;;;6.30;65.94
22206;BME280;11272;50.104;8.754;2023-04-03T01:41:04;101725.81;;;6.31;66.11
22206;BME280;11272;50.104;8.754;2023-04-03T01:43:33;101723.22;;;6.32;65.72
22206;BME280;11272;50.104;8.754;2023-04-03T01:45:58;101730.22;;;6.32;65.65
22206;BME280;11272;50.104;8.754;2023-04-03T01:48:24;101724.94;;;6.32;65.95
22206;BME280;11272;50.104;8.754;2023-04-03T01:50:50;101724.91;;;6.30;65.88
22206;BME280;11272;50.104;8.754;2023-04-03T01:53:19;101728.44;;;6.31;65.93
22206;BME280;11272;50.104;8.754;2023-04-03T01:55:45;101733.75;;;6.32;65.88
22206;BME280;11272;50.104;8.754;2023-04-03T01:58:13;101736.34;;;6.29;65.65
22206;BME280;11272;50.104;8.754;2023-04-03T02:00:41;101731.97;;;6.30;65.88
22206;BME280;11272;50.104;8.754;2023-04-03T02:03:09;101731.97;;;6.30;65.89
22206;BME280;11272;50.104;8.754;2023-04-03T02:05:35;101729.34;;;6.31;65.89
22206;BME280;11272;50.104;8.754;2023-04-03T02:12:01;101740.75;;;6.29;65.88
22206;BME280;11272;50.104;8.754;2023-04-03T02:14:31;101740.75;;;6.30;65.82
22206;BME280;11272;50.104;8.754;2023-04-03T02:20:39;101749.50;;;6.28;66.19
22206;BME280;11272;50.104;8.754;2023-04-03T02:23:13;101748.63;;;6.27;65.78
22206;BME280;11272;50.104;8.754;2023-04-03T02:25:43;101739.81;;;6.27;65.94
22206;BME280;11272;50.104;8.754;2023-04-03T02:28:08;101745.94;;;6.26;65.93
22206;BME280;11272;50.104;8.754;2023-04-03T02:31:04;101744.19;;;6.26;66.13
22206;BME280;11272;50.104;8.754;2023-04-03T02:33:36;101739.84;;;6.28;66.25
22206;BME280;11272;50.104;8.754;2023-04-03T02:36:08;101743.38;;;6.29;66.44
22206;BME280;11272;50.104;8.754;2023-04-03T02:38:36;101738.97;;;6.28;66.53
22206;BME280;11272;50.104;8.754;2023-04-03T02:41:14;101737.22;;;6.28;66.82
22206;BME280;11272;50.104;8.754;2023-04-03T02:43:40;101738.97;;;6.28;66.73
22206;BME280;11272;50.104;8.754;2023-04-03T02:46:11;101742.44;;;6.27;66.61
22206;BME280;11272;50.104;8.754;2023-04-03T02:48:54;101745.06;;;6.25;66.98
22206;BME280;11272;50.104;8.754;2023-04-03T02:51:33;101749.47;;;6.26;66.64
22206;BME280;11272;50.104;8.754;2023-04-03T02:54:07;101745.06;;;6.25;66.87
22206;BME280;11272;50.104;8.754;2023-04-03T02:56:38;101751.22;;;6.26;67.18
22206;BME280;11272;50.104;8.754;2023-04-03T02:59:13;101743.28;;;6.23;67.12
22206;BME280;11272;50.104;8.754;2023-04-03T03:01:43;101740.56;;;6.20;66.92
22206;BME280;11272;50.104;8.754;2023-04-03T03:04:16;101744.09;;;6.19;66.70
22206;BME280;11272;50.104;8.754;2023-04-03T03:06:57;101744.97;;;6.19;66.58
22206;BME280;11272;50.104;8.754;2023-04-03T03:09:25;101742.31;;;6.18;66.96
22206;BME280;11272;50.104;8.754;2023-04-03T03:11:53;101735.25;;;6.17;66.65
22206;BME280;11272;50.104;8.754;2023-04-03T03:14:40;101738.69;;;6.13;66.35
22206;BME280;11272;50.104;8.754;2023-04-03T03:17:18;101742.16;;;6.10;66.43
22206;BME280;11272;50.104;8.754;2023-04-03T03:19:44;101739.47;;;6.07;66.12
22206;BME280;11272;50.104;8.754;2023-04-03T03:22:19;101741.16;;;6.04;66.17
22206;BME280;11272;50.104;8.754;2023-04-03T03:24:50;101739.31;;;6.00;66.04
22206;BME280;11272;50.104;8.754;2023-04-03T03:27:21;101748.06;;;5.96;65.63
22206;BME280;11272;50.104;8.754;2023-04-03T03:29:49;101736.53;;;5.90;65.57
22206;BME280;11272;50.104;8.754;2023-04-03T03:32:28;101744.41;;;5.87;65.42
22206;BME280;11272;50.104;8.754;2023-04-03T03:34:54;101744.25;;;5.83;65.70
22206;BME280;11272;50.104;8.754;2023-04-03T03:37:22;101742.41;;;5.79;65.46
22206;BME280;11272;50.104;8.754;2023-04-03T03:39:50;101750.25;;;5.74;65.05
22206;BME280;11272;50.104;8.754;2023-04-03T03:42:20;101748.38;;;5.69;65.35
22206;BME280;11272;50.104;8.754;2023-04-03T03:45:03;101742.94;;;5.61;64.90
22206;BME280;11272;50.104;8.754;2023-04-03T03:47:34;101750.75;;;5.55;65.25
22206;BME280;11272;50.104;8.754;2023-04-03T03:50:01;101748.00;;;5.49;64.84
22206;BME280;11272;50.104;8.754;2023-04-03T03:52:27;101753.13;;;5.43;64.94
22206;BME280;11272;50.104;8.754;2023-04-03T03:55:01;101754.81;;;5.41;64.92
22206;BME280;11272;50.104;8.754;2023-04-03T03:57:27;101755.66;;;5.38;65.25
22206;BME280;11272;50.104;8.754;2023-04-03T03:59:59;101755.63;;;5.37;65.35
22206;BME280;11272;50.104;8.754;2023-04-03T04:02:25;101761.75;;;5.36;65.49
22206;BME280;11272;50.104;8.754;2023-04-03T04:04:56;101758.22;;;5.35;65.20
22206;BME280;11272;50.104;8.754;2023-04-03T04:07:32;101762.59;;;5.33;65.14
22206;BME280;11272;50.104;8.754;2023-04-03T04:10:02;101769.59;;;5.33;65.08
22206;BME280;11272;50.104;8.754;2023-04-03T04:12:39;101767.81;;;5.32;65.19
22206;BME280;11272;50.104;8.754;2023-04-03T04:17:55;101768.66;;;5.31;64.78
22206;BME280;11272;50.104;8.754;2023-04-03T04:20:23;101762.53;;;5.32;65.23
22206;BME280;11272;50.104;8.754;2023-04-03T04:23:00;101772.16;;;5.30;64.74
22206;BME280;11272;50.104;8.754;2023-04-03T04:25:37;101766.88;;;5.30;65.07
22206;BME280;11272;50.104;8.754;2023-04-03T06:36:02;101859.69;;;8.17;64.15
22206;BME280;11272;50.104;8.754;2023-04-03T06:38:34;101862.75;;;8.54;63.55
22206;BME280;11272;50.104;8.754;2023-04-03T06:41:07;101867.50;;;8.91;62.45
22206;BME280;11272;50.104;8.754;2023-04-03T06:43:35;101867.75;;;9.21;61.89
22206;BME280;11272;50.104;8.754;2023-04-03T06:46:01;101867.06;;;9.53;61.07
22206;BME280;11272;50.104;8.754;2023-04-03T06:48:40;101872.53;;;9.85;60.47
22206;BME280;11272;50.104;8.754;2023-04-03T06:51:29;101859.41;;;10.13;59.27
22206;BME280;11272;50.104;8.754;2023-04-03T06:53:59;101875.41;;;10.32;57.93
22206;BME280;11272;50.104;8.754;2023-04-03T06:56:30;101877.22;;;10.48;57.70
22206;BME280;11272;50.104;8.754;2023-04-03T06:59:03;101876.38;;;10.66;57.11
22206;BME280;11272;50.104;8.754;2023-04-03T07:01:36;101872.88;;;10.83;55.90
22206;BME280;11272;50.104;8.754;2023-04-03T07:07:22;101876.38;;;11.17;54.83
22206;BME280;11272;50.104;8.754;2023-04-03T07:09:53;101877.28;;;11.28;54.31
22206;BME280;11272;50.104;8.754;2023-04-03T07:15:05;101885.19;;;11.72;53.43
22206;BME280;11272;50.104;8.754;2023-04-03T07:17:31;101886.06;;;11.84;52.54
22206;BME280;11272;50.104;8.754;2023-04-03T07:19:59;101886.97;;;11.78;52.13
22206;BME280;11272;50.104;8.754;2023-04-03T07:22:30;101894.06;;;11.84;51.53
22206;BME280;11272;50.104;8.754;2023-04-03T07:25:13;101894.94;;;11.86;51.36
22206;BME280;11272;50.104;8.754;2023-04-03T07:27:57;101893.97;;;12.03;51.23
22206;BME280;11272;50.104;8.754;2023-04-03T07:30:30;101903.56;;;12.41;50.72
22206;BME280;11272;50.104;8.754;2023-04-03T07:33:01;101895.44;;;12.65;49.87
22206;BME280;11272;50.104;8.754;2023-04-03T07:35:41;101901.50;;;12.88;49.40
22206;BME280;11272;50.104;8.754;2023-04-03T07:38:26;101904.91;;;13.13;48.34
22206;BME280;11272;50.104;8.754;2023-04-03T07:41:00;101906.59;;;13.20;47.81
22206;BME280;11272;50.104;8.754;2023-04-03T07:43:52;101900.19;;;13.44;47.68
22206;BME280;11272;50.104;8.754;2023-04-03T07:46:44;101908.19;;;13.45;47.16
22206;BME280;11272;50.104;8.754;2023-04-03T07:49:16;101908.09;;;13.53;46.55
22206;BME280;11272;50.104;8.754;2023-04-03T07:51:44;101910.66;;;13.64;46.28
22206;BME280;11272;50.104;8.754;2023-04-03T07:54:30;101899.66;;;13.94;45.68
22206;BME280;11272;50.104;8.754;2023-04-03T07:56:59;101900.97;;;14.30;45.41
22206;BME280;11272;50.104;8.754;2023-04-03T07:59:35;101904.16;;;14.59;44.54
22206;BME280;11272;50.104;8.754;2023-04-03T08:02:07;101904.00;;;14.70;44.11
22206;BME280;11272;50.104;8.754;2023-04-03T08:04:38;101891.25;;;14.89;43.65
22206;BME280;11272;50.104;8.754;2023-04-03T08:07:21;101897.34;;;14.97;43.17
22206;BME280;11272;50.104;8.754;2023-04-03T08:09:50;101896.38;;;15.02;42.47
22206;BME280;11272;50.104;8.754;2023-04-03T08:12:27;101893.50;;;15.14;42.09
22206;BME280;11272;50.104;8.754;2023-04-03T08:14:59;101895.88;;;15.31;41.70
22206;BME280;11272;50.104;8.754;2023-04-03T08:17:29;101898.03;;;15.63;41.28
22206;BME280;11272;50.104;8.754;2023-04-03T08:19:58;101893.91;;;15.91;40.79
22206;BME280;11272;50.104;8.754;2023-04-03T08:22:32;101891.91;;;16.03;39.95
22206;BME280;11272;50.104;8.754;2023-04-03T08:25:00;101887.00;;;16.23;39.56
22206;BME280;11272;50.104;8.754;2023-04-03T08:27:37;101888.09;;;16.54;39.04
22206;BME280;11272;50.104;8.754;2023-04-03T08:30:06;101887.63;;;16.75;38.11
22206;BME280;11272;50.104;8.754;2023-04-03T08:32:35;101880.88;;;16.95;37.68
22206;BME280;11272;50.104;8.754;2023-04-03T08:35:04;101883.00;;;17.17;37.05
22206;BME280;11272;50.104;8.754;2023-04-03T08:37:37;101884.22;;;17.40;36.85
22206;BME280;11272;50.104;8.754;2023-04-03T08:40:16;101874.72;;;17.62;36.85
22206;BME280;11272;50.104;8.754;2023-04-03T08:45:57;101871.22;;;18.49;36.34
22206;BME280;11272;50.104;8.754;2023-04-03T08:48:35;101877.63;;;18.75;35.88
22206;BME280;11272;50.104;8.754;2023-04-03T08:51:13;101872.69;;;18.89;35.27
22206;BME280;11272;50.104;8.754;2023-04-03T08:53:49;101872.16;;;18.78;34.73
22206;BME280;11272;50.104;8.754;2023-04-03T08:56:29;101882.38;;;18.67;34.46
22206;BME280;11272;50.104;8.754;2023-04-03T08:58:59;101881.31;;;18.12;34.11
22206;BME280;11272;50.104;8.754;2023-04-03T09:01:38;101887.19;;;17.95;34.21
22206;BME280;11272;50.104;8.754;2023-04-03T09:04:16;101881.13;;;18.18;34.14
22206;BME280;11272;50.104;8.754;2023-04-03T09:06:54;101880.44;;;18.42;33.99
22206;BME280;11272;50.104;8.754;2023-04-03T09:09:36;101882.56;;;18.61;33.67
22206;BME280;11272;50.104;8.754;2023-04-03T09:12:24;101885.22;;;18.62;33.33
22206;BME280;11272;50.104;8.754;2023-04-03T09:15:12;101876.06;;;18.68;33.26
22206;BME280;11272;50.104;8.754;2023-04-03T09:18:04;101882.53;;;19.16;33.07
22206;BME280;11272;50.104;8.754;2023-04-03T09:23:52;101879.22;;;18.80;31.85
22206;BME280;11272;50.104;8.754;2023-04-03T09:26:21;101897.06;;;18.57;31.75
22206;BME280;11272;50.104;8.754;2023-04-03T09:29:17;101890.06;;;17.89;32.06
22206;BME280;11272;50.104;8.754;2023-04-03T09:31:48;101872.78;;;17.32;32.44
22206;BME280;11272;50.104;8.754;2023-04-03T09:34:36;101887.75;;;17.06;33.08
22206;BME280;11272;50.104;8.754;2023-04-03T09:43:35;101874.53;;;16.20;33.83
22206;BME280;11272;50.104;8.754;2023-04-03T09:48:59;101871.25;;;15.63;34.08
22206;BME280;11272;50.104;8.754;2023-04-03T09:51:37;101866.72;;;16.08;34.33
22206;BME280;11272;50.104;8.754;2023-04-03T09:54:48;101867.53;;;16.53;34.17
22206;BME280;11272;50.104;8.754;2023-04-03T09:57:34;101867.09;;;16.73;34.19
22206;BME280;11272;50.104;8.754;2023-04-03T10:00:27;101870.06;;;17.33;33.13
22206;BME280;11272;50.104;8.754;2023-04-03T10:02:57;101862.00;;;17.99;33.46
22206;BME280;11272;50.104;8.754;2023-04-03T10:05:36;101852.06;;;18.60;32.28
22206;BME280;11272;50.104;8.754;2023-04-03T10:11:17;101854.44;;;18.41;31.20
22206;BME280;11272;50.104;8.754;2023-04-03T10:14:16;101857.91;;;18.45;31.04
22206;BME280;11272;50.104;8.754;2023-04-03T10:16:53;101850.28;;;18.31;31.56
22206;BME280;11272;50.104;8.754;2023-04-03T10:19:37;101848.97;;;18.15;31.27
22206;BME280;11272;50.104;8.754;2023-04-03T10:22:39;101858.25;;;18.34;31.46
22206;BME280;11272;50.104;8.754;2023-04-03T10:25:42;101849.69;;;17.91;30.94
22206;BME280;11272;50.104;8.754;2023-04-03T10:28:24;101858.25;;;18.05;30.79
22206;BME280;11272;50.104;8.754;2023-04-03T10:39:08;101851.63;;;17.86;31.03
22206;BME280;11272;50.104;8.754;2023-04-03T10:42:02;101855.41;;;17.46;31.09
22206;BME280;11272;50.104;8.754;2023-04-03T10:47:13;101846.31;;;16.82;31.36
22206;BME280;11272;50.104;8.754;2023-04-03T11:00:54;101831.03;;;18.16;30.28
22206;BME280;11272;50.104;8.754;2023-04-03T11:03:44;101832.88;;;18.99;29.87
22206;BME280;11272;50.104;8.754;2023-04-03T11:06:16;101823.47;;;19.37;29.16
22206;BME280;11272;50.104;8.754;2023-04-03T11:08:51;101813.28;;;19.71;28.95
22206;BME280;11272;50.104;8.754;2023-04-03T11:11:23;101820.88;;;19.60;28.49
22206;BME280;11272;50.104;8.754;2023-04-03T11:14:03;101817.19;;;19.36;28.07
22206;BME280;11272;50.104;8.754;2023-04-03T11:16:34;101815.63;;;18.78;28.05
22206;BME280;11272;50.104;8.754;2023-04-03T11:19:13;101808.63;;;18.72;28.46
22206;BME280;11272;50.104;8.754;2023-04-03T11:22:03;101807.34;;;18.84;28.31
22206;BME280;11272;50.104;8.754;2023-04-03T11:24:32;101791.78;;;19.43;28.17
22206;BME280;11272;50.104;8.754;2023-04-03T11:27:00;101794.31;;;19.72;27.51
22206;BME280;11272;50.104;8.754;2023-04-03T11:29:33;101793.38;;;19.73;27.37
22206;BME280;11272;50.104;8.754;2023-04-03T11:32:11;101786.06;;;20.24;27.26
22206;BME280;11272;50.104;8.754;2023-04-03T11:34:47;101798.81;;;20.85;26.58
22206;BME280;11272;50.104;8.754;2023-04-03T11:37:29;101792.41;;;21.30;26.54
22206;BME280;11272;50.104;8.754;2023-04-03T11:40:01;101798.13;;;21.83;25.54
22206;BME280;11272;50.104;8.754;2023-04-03T11:42:42;101780.28;;;22.54;25.59
22206;BME280;11272;50.104;8.754;2023-04-03T11:45:51;101792.84;;;22.55;25.01
22206;BME280;11272;50.104;8.754;2023-04-03T11:50:58;101771.59;;;22.83;23.57
22206;BME280;11272;50.104;8.754;2023-04-03T11:55:59;101765.22;;;23.53;23.17
22206;BME280;11272;50.104;8.754;2023-04-03T11:58:32;101770.47;;;23.89;22.76
22206;BME280;11272;50.104;8.754;2023-04-03T12:01:09;101767.94;;;24.19;22.48
22206;BME280;11272;50.104;8.754;2023-04-03T12:22:04;101754.88;;;23.09;21.98
22206;BME280;11272;50.104;8.754;2023-04-03T12:24:39;101735.03;;;22.56;22.07
22206;BME280;11272;50.104;8.754;2023-04-03T12:33:04;101756.28;;;20.90;23.33
22206;BME280;11272;50.104;8.754;2023-04-03T12:41:26;101735.28;;;22.51;22.66
22206;BME280;11272;50.104;8.754;2023-04-03T12:46:49;101732.47;;;23.06;22.31
22206;BME280;11272;50.104;8.754;2023-04-03T12:49:30;101725.41;;;23.36;22.04
22206;BME280;11272;50.104;8.754;2023-04-03T12:51:58;101726.47;;;23.67;21.98
22206;BME280;11272;50.104;8.754;2023-04-03T12:54:42;101711.78;;;24.19;21.76
22206;BME280;11272;50.104;8.754;2023-04-03T12:57:24;101718.59;;;24.26;20.79
22206;BME280;11272;50.104;8.754;2023-04-03T12:59:51;101714.31;;;24.22;20.53
22206;BME280;11272;50.104;8.754;2023-04-03T13:02:34;101713.25;;;24.41;20.75
22206;BME280;11272;50.104;8.754;2023-04-03T13:05:08;101705.88;;;24.43;20.86
22206;BME280;11272;50.104;8.754;2023-04-03T13:07:37;101716.41;;;24.17;20.81
22206;BME280;11272;50.104;8.754;2023-04-03T13:12:31;101712.16;;;23.65;20.73
22206;BME280;11272;50.104;8.754;2023-04-03T13:15:02;101705.94;;;23.78;20.89
22206;BME280;11272;50.104;8.754;2023-04-03T13:17:38;101704.13;;;24.10;20.93
22206;BME280;11272;50.104;8.754;2023-04-03T13:20:29;101705.78;;;23.97;20.48
22206;BME280;11272;50.104;8.754;2023-04-03T13:23:02;101701.31;;;23.80;20.71
22206;BME280;11272;50.104;8.754;2023-04-03T13:25:33;101706.75;;;23.80;20.09
22206;BME280;11272;50.104;8.754;2023-04-03T13:28:01;101700.63;;;23.77;20.01
22206;BME280;11272;50.104;8.754;2023-04-03T13:30:35;101704.13;;;23.95;19.96
22206;BME280;11272;50.104;8.754;2023-04-03T13:33:06;101702.88;;;24.00;20.11
22206;BME280;11272;50.104;8.754;2023-04-03T13:35:43;101701.03;;;23.85;19.83
22206;BME280;11272;50.104;8.754;2023-04-03T13:40:52;101687.81;;;23.79;19.45
22206;BME280;11272;50.104;8.754;2023-04-03T13:43:25;101682.63;;;23.59;19.80
22206;BME280;11272;50.104;8.754;2023-04-03T13:45:56;101682.31;;;23.65;19.95
22206;BME280;11272;50.104;8.754;2023-04-03T13:48:23;101681.16;;;23.69;19.89
22206;BME280;11272;50.104;8.754;2023-04-03T13:51:04;101681.84;;;23.72;20.02
22206;BME280;11272;50.104;8.754;2023-04-03T13:53:34;101684.22;;;23.63;20.00
22206;BME280;11272;50.104;8.754;2023-04-03T13:56:17;101670.47;;;23.33;20.13
22206;BME280;11272;50.104;8.754;2023-04-03T13:59:21;101674.22;;;23.30;20.58
22206;BME280;11272;50.104;8.754;2023-04-03T14:07:05;101684.13;;;23.31;20.30
22206;BME280;11272;50.104;8.754;2023-04-03T14:09:31;101661.13;;;23.38;20.61
22206;BME280;11272;50.104;8.754;2023-04-03T14:12:02;101657.25;;;22.94;20.71
22206;BME280;11272;50.104;8.754;2023-04-03T14:14:34;101661.97;;;22.54;20.59
22206;BME280;11272;50.104;8.754;2023-04-03T14:17:03;101670.75;;;22.42;20.82
22206;BME280;11272;50.104;8.754;2023-04-03T14:19:34;101668.81;;;22.27;20.77
22206;BME280;11272;50.104;8.754;2023-04-03T14:22:05;101664.84;;;22.34;20.48
22206;BME280;11272;50.104;8.754;2023-04-03T14:24:34;101652.91;;;22.21;20.82
22206;BME280;11272;50.104;8.754;2023-04-03T14:27:00;101669.09;;;22.04;20.84
22206;BME280;11272;50.104;8.754;2023-04-03T14:29:26;101664.16;;;22.12;21.00
22206;BME280;11272;50.104;8.754;2023-04-03T14:31:51;101663.16;;;21.96;21.00
22206;BME280;11272;50.104;8.754;2023-04-03T14:34:17;101664.84;;;21.98;20.96
22206;BME280;11272;50.104;8.754;2023-04-03T14:36:48;101658.19;;;22.05;20.83
22206;BME280;11272;50.104;8.754;2023-04-03T14:39:17;101650.78;;;22.09;20.97
22206;BME280;11272;50.104;8.754;2023-04-03T14:41:44;101637.97;;;22.12;20.89
22206;BME280;11272;50.104;8.754;2023-04-03T14:44:09;101648.69;;;22.33;21.26
22206;BME280;11272;50.104;8.754;2023-04-03T14:46:42;101649.47;;;22.35;21.15
22206;BME280;11272;50.104;8.754;2023-04-03T14:49:24;101648.66;;;22.15;21.23
22206;BME280;11272;50.104;8.754;2023-04-03T14:51:55;101644.59;;;22.24;21.30
22206;BME280;11272;50.104;8.754;2023-04-03T14:54:26;101645.53;;;22.06;21.31
22206;BME280;11272;50.104;8.754;2023-04-03T14:56:54;101644.94;;;21.80;21.21
22206;BME280;11272;50.104;8.754;2023-04-03T14:59:21;101650.81;;;21.53;21.35
22206;BME280;11272;50.104;8.754;2023-04-03T15:01:47;101642.75;;;21.32;21.49
22206;BME280;11272;50.104;8.754;2023-04-03T15:04:17;101639.03;;;21.35;21.49
22206;BME280;11272;50.104;8.754;2023-04-03T15:06:45;101630.63;;;21.41;21.69
22206;BME280;11272;50.104;8.754;2023-04-03T15:09:19;101635.91;;;21.63;21.67
22206;BME280;11272;50.104;8.754;2023-04-03T15:11:47;101642.19;;;21.63;21.56
22206;BME280;11272;50.104;8.754;2023-04-03T15:14:13;101636.47;;;21.51;21.75
22206;BME280;11272;50.104;8.754;2023-04-03T15:16:38;101644.28;;;21.38;21.43
22206;BME280;11272;50.104;8.754;2023-04-03T15:19:05;101645.22;;;20.98;21.84
22206;BME280;11272;50.104;8.754;2023-04-03T15:21:31;101647.84;;;20.59;22.08
22206;BME280;11272;50.104;8.754;2023-04-03T15:23:57;101644.47;;;20.54;22.14
22206;BME280;11272;50.104;8.754;2023-04-03T15:26:22;101648.16;;;20.51;22.04
22206;BME280;11272;50.104;8.754;2023-04-03T15:28:48;101632.44;;;20.41;22.36
22206;BME280;11272;50.104;8.754;2023-04-03T15:31:14;101649.03;;;20.52;22.25
22206;BME280;11272;50.104;8.754;2023-04-03T15:33:41;101647.00;;;20.37;22.16
22206;BME280;11272;50.104;8.754;2023-04-03T15:36:07;101641.00;;;20.08;22.53
22206;BME280;11272;50.104;8.754;2023-04-03T15:38:33;101646.63;;;20.02;22.45
22206;BME280;11272;50.104;8.754;2023-04-03T15:40:59;101644.19;;;19.96;22.53
22206;BME280;11272;50.104;8.754;2023-04-03T15:43:25;101641.97;;;19.84;22.50
22206;BME280;11272;50.104;8.754;2023-04-03T15:45:51;101649.72;;;19.48;22.61
22206;BME280;11272;50.104;8.754;2023-04-03T15:48:17;101642.97;;;18.88;22.71
22206;BME280;11272;50.104;8.754;2023-04-03T15:50:46;101649.63;;;17.99;23.43
22206;BME280;11272;50.104;8.754;2023-04-03T15:53:11;101649.25;;;16.93;24.31
22206;BME280;11272;50.104;8.754;2023-04-03T15:55:38;101653.00;;;16.18;24.83
22206;BME280;11272;50.104;8.754;2023-04-03T15:58:04;101652.56;;;15.61;25.41
22206;BME280;11272;50.104;8.754;2023-04-03T16:00:30;101658.88;;;15.16;26.12
22206;BME280;11272;50.104;8.754;2023-04-03T16:03:00;101659.09;;;14.58;26.69
22206;BME280;11272;50.104;8.754;2023-04-03T16:05:29;101651.75;;;14.19;26.82
22206;BME280;11272;50.104;8.754;2023-04-03T16:07:57;101650.47;;;13.87;27.45
22206;BME280;11272;50.104;8.754;2023-04-03T16:10:23;101657.19;;;13.55;27.58
22206;BME280;11272;50.104;8.754;2023-04-03T16:12:50;101652.16;;;13.30;27.97
22206;BME280;11272;50.104;8.754;2023-04-03T16:15:16;101658.59;;;13.11;28.57
22206;BME280;11272;50.104;8.754;2023-04-03T16:17:42;101656.13;;;12.96;28.86
22206;BME280;11272;50.104;8.754;2023-04-03T16:20:09;101658.91;;;12.85;28.98
22206;BME280;11272;50.104;8.754;2023-04-03T16:22:36;101663.41;;;12.77;29.16
22206;BME280;11272;50.104;8.754;2023-04-03T16:25:04;101659.97;;;12.68;29.56
22206;BME280;11272;50.104;8.754;2023-04-03T16:27:30;101664.59;;;12.50;29.59
22206;BME280;11272;50.104;8.754;2023-04-03T16:30:00;101659.38;;;12.38;29.55
22206;BME280;11272;50.104;8.754;2023-04-03T16:32:28;101660.47;;;12.13;30.13
22206;BME280;11272;50.104;8.754;2023-04-03T16:34:56;101668.66;;;11.90;30.45
22206;BME280;11272;50.104;8.754;2023-04-03T16:37:22;101666.06;;;11.79;30.59
22206;BME280;11272;50.104;8.754;2023-04-03T16:39:47;101671.38;;;11.78;30.67
22206;BME280;11272;50.104;8.754;2023-04-03T16:42:13;101662.56;;;11.73;31.04
22206;BME280;11272;50.104;8.754;2023-04-03T16:44:39;101666.13;;;11.61;31.06
22206;BME280;11272;50.104;8.754;2023-04-03T16:47:06;101667.09;;;11.47;31.61
22206;BME280;11272;50.104;8.754;2023-04-03T16:49:33;101663.59;;;11.40;31.52
22206;BME280;11272;50.104;8.754;2023-04-03T16:52:00;101665.38;;;11.36;31.28
22206;BME280;11272;50.104;8.754;2023-04-03T16:54:28;101660.97;;;11.34;31.72
22206;BME280;11272;50.104;8.754;2023-04-03T16:56:54;101663.66;;;11.32;31.80
22206;BME280;11272;50.104;8.754;2023-04-03T16:59:20;101675.19;;;11.24;31.87
22206;BME280;11272;50.104;8.754;2023-04-03T17:01:46;101677.00;;;11.13;32.14
22206;BME280;11272;50.104;8.754;2023-04-03T17:04:12;101668.19;;;11.03;32.41
22206;BME280;11272;50.104;8.754;2023-04-03T17:06:38;101674.44;;;10.88;32.45
22206;BME280;11272;50.104;8.754;2023-04-03T17:09:05;101675.34;;;10.75;32.10
22206;BME280;11272;50.104;8.754;2023-04-03T17:11:31;101684.22;;;10.68;32.42
22206;BME280;11272;50.104;8.754;2023-04-03T17:13:58;101678.00;;;10.63;33.13
22206;BME280;11272;50.104;8.754;2023-04-03T17:16:24;101691.31;;;10.59;32.94
22206;BME280;11272;50.104;8.754;2023-04-03T17:18:51;101686.91;;;10.51;33.08